Time;durP1;ratioP1;P1;durP2;ratioP2;P2;SDS_P1;SDS_P2;PMS_P1;PMS_P2;Temp;Humidity;BMP_temperature;BMP_pressure;BME280_temperature;BME280_humidity;BME280_pressure;Samples;Min_cycle;Max_cycle;Signal;HPM_P1;HPM_P2
2021/12/05 00:19:12;;;;;;;10.63;2.90;;;1.90;99.90;;;;;;4842658;29;20207;-86
2021/12/05 00:24:52;;;;;;;6.05;3.00;;;2.00;99.90;;;;;;4861343;29;20348;-86
2021/12/05 00:27:49;;;;;;;7.97;2.90;;;2.00;99.90;;;;;;4858274;29;20543;-87
2021/12/05 00:40:23;;;;;;;14.75;2.72;;;2.00;99.90;;;;;;4850361;29;20045;-87
2021/12/05 00:43:38;;;;;;;9.03;3.27;;;2.00;99.90;;;;;;4853435;29;20057;-84
2021/12/05 00:47:28;;;;;;;7.97;2.75;;;2.00;99.90;;;;;;4860604;29;20046;-86
2021/12/05 00:50:05;;;;;;;12.60;3.08;;;2.00;99.90;;;;;;4850682;29;20080;-87
2021/12/05 01:04:46;;;;;;;5.80;3.03;;;2.00;99.90;;;;;;4859404;29;20064;-87
2021/12/05 01:16:46;;;;;;;7.63;2.90;;;1.90;99.90;;;;;;4851060;29;20045;-86
2021/12/05 01:19:34;;;;;;;13.45;3.08;;;1.90;99.90;;;;;;4842678;29;20042;-86
2021/12/05 01:22:24;;;;;;;10.00;3.40;;;1.80;99.90;;;;;;4859662;29;20060;-87
2021/12/05 01:31:10;;;;;;;6.57;3.20;;;1.80;99.90;;;;;;4855947;29;20174;-84
2021/12/05 01:41:32;;;;;;;9.57;3.08;;;1.80;99.90;;;;;;4792338;29;20131;-86
2021/12/05 02:29:29;;;;;;;13.77;2.80;;;1.90;99.90;;;;;;4855103;29;20101;-87
2021/12/05 02:38:50;;;;;;;9.30;2.55;;;2.00;99.90;;;;;;4840770;29;20058;-84
2021/12/05 02:41:33;;;;;;;10.55;2.53;;;2.00;99.90;;;;;;4853242;29;20042;-85
2021/12/05 02:44:24;;;;;;;8.90;3.03;;;2.00;99.90;;;;;;4842521;29;20050;-86
2021/12/05 02:47:19;;;;;;;10.35;2.80;;;2.00;99.90;;;;;;4847161;29;20198;-85
2021/12/05 02:50:09;;;;;;;7.40;2.70;;;1.90;99.90;;;;;;4855337;29;20519;-86
2021/12/05 02:53:05;;;;;;;8.63;2.80;;;1.90;99.90;;;;;;4860282;29;20049;-85
2021/12/05 02:55:52;;;;;;;7.88;2.83;;;1.90;99.90;;;;;;4844047;29;20069;-85
2021/12/05 03:01:42;;;;;;;13.05;3.25;;;1.80;99.90;;;;;;4842158;29;20058;-86
2021/12/05 03:04:33;;;;;;;10.25;3.30;;;1.80;99.90;;;;;;4855858;29;20080;-85
2021/12/05 03:07:27;;;;;;;13.68;2.70;;;1.90;99.90;;;;;;4855643;29;20384;-85
2021/12/05 03:10:18;;;;;;;8.50;3.10;;;1.90;99.90;;;;;;4842781;29;20741;-85
2021/12/05 03:13:05;;;;;;;8.20;2.72;;;1.90;99.90;;;;;;4858872;29;20168;-84
2021/12/05 03:15:58;;;;;;;11.25;2.50;;;1.90;99.90;;;;;;4850195;29;20129;-85
2021/12/05 03:18:46;;;;;;;10.93;2.45;;;1.90;99.90;;;;;;4831133;29;20046;-83
2021/12/05 03:21:38;;;;;;;8.50;2.80;;;1.90;99.90;;;;;;4857447;29;20041;-86
2021/12/05 03:24:26;;;;;;;9.68;3.00;;;1.90;99.90;;;;;;4858512;29;20061;-85
2021/12/05 03:27:13;;;;;;;6.50;2.13;;;2.00;99.90;;;;;;4848991;29;20057;-85
2021/12/05 03:30:01;;;;;;;4.55;2.28;;;1.90;99.90;;;;;;4852521;29;20045;-85
2021/12/05 03:32:50;;;;;;;10.15;2.88;;;2.00;99.90;;;;;;4857275;29;20045;-85
2021/12/05 03:35:40;;;;;;;9.07;2.72;;;2.00;99.90;;;;;;4859230;29;20488;-86
2021/12/05 03:38:27;;;;;;;13.93;3.00;;;2.00;99.90;;;;;;4853309;29;20061;-85
2021/12/05 03:41:18;;;;;;;11.05;2.33;;;2.00;99.90;;;;;;4819398;29;20053;-84
2021/12/05 03:44:09;;;;;;;6.40;2.40;;;2.00;99.90;;;;;;4849191;29;20069;-83
2021/12/05 03:46:57;;;;;;;8.48;2.60;;;2.00;99.90;;;;;;4864027;29;20041;-83
2021/12/05 03:49:45;;;;;;;7.57;2.45;;;2.00;99.90;;;;;;4865911;29;20049;-85
2021/12/05 03:52:33;;;;;;;13.73;2.35;;;2.00;99.90;;;;;;4845901;29;20491;-85
2021/12/05 03:55:21;;;;;;;9.32;2.85;;;2.00;99.90;;;;;;4851541;29;20064;-84
2021/12/05 03:58:09;;;;;;;4.63;2.33;;;1.90;99.90;;;;;;4854232;29;20056;-85
2021/12/05 04:01:03;;;;;;;7.22;2.95;;;1.90;99.90;;;;;;4866256;29;20060;-83
2021/12/05 04:03:53;;;;;;;10.15;2.45;;;1.80;99.90;;;;;;4869603;29;20049;-83
2021/12/05 04:06:42;;;;;;;11.90;3.05;;;1.80;99.90;;;;;;4870389;29;20090;-85
2021/12/05 04:09:31;;;;;;;12.82;2.53;;;1.80;99.90;;;;;;4860960;29;20201;-86
2021/12/05 04:12:20;;;;;;;9.77;2.15;;;1.70;99.90;;;;;;4862667;29;20057;-85
2021/12/05 04:15:10;;;;;;;5.40;2.30;;;1.70;99.90;;;;;;4846604;29;20051;-86
2021/12/05 04:17:58;;;;;;;7.75;2.00;;;1.70;99.90;;;;;;4856861;29;20058;-85
2021/12/05 04:20:50;;;;;;;;;;;1.80;99.90;;;;;;4846461;29;20125;-86
2021/12/05 04:23:38;;;;;;;11.38;2.33;;;1.70;99.90;;;;;;4848685;29;19988;-87
2021/12/05 04:26:27;;;;;;;4.57;2.15;;;1.80;99.90;;;;;;4847663;29;20042;-87
2021/12/05 04:29:15;;;;;;;8.00;2.50;;;1.80;99.90;;;;;;4854625;29;20448;-84
2021/12/05 04:32:03;;;;;;;13.68;2.80;;;1.90;99.90;;;;;;4852826;29;20046;-85
2021/12/05 04:34:51;;;;;;;6.72;2.60;;;1.90;99.90;;;;;;4853661;29;20050;-87
2021/12/05 04:37:39;;;;;;;9.05;2.47;;;1.90;99.90;;;;;;4844277;29;20045;-86
2021/12/05 04:40:26;;;;;;;12.65;2.78;;;1.90;99.90;;;;;;4857068;29;20049;-85
2021/12/05 04:43:16;;;;;;;6.97;1.88;;;1.90;99.90;;;;;;4852766;29;20057;-85
2021/12/05 04:46:17;;;;;;;5.38;1.67;;;1.90;99.90;;;;;;4850136;29;20118;-87
2021/12/05 04:49:06;;;;;;;11.25;2.42;;;1.80;99.90;;;;;;4856243;29;20102;-83
2021/12/05 04:52:01;;;;;;;5.65;2.50;;;1.70;99.90;;;;;;4847031;29;20065;-85
2021/12/05 04:54:48;;;;;;;11.90;2.22;;;1.70;99.90;;;;;;4832985;29;20049;-86
2021/12/05 04:57:35;;;;;;;7.63;2.03;;;1.70;99.90;;;;;;4857505;29;20057;-86
2021/12/05 05:00:28;;;;;;;7.70;2.60;;;1.60;99.90;;;;;;4856055;29;20045;-85
2021/12/05 05:07:27;;;;;;;10.50;2.80;;;1.30;99.90;;;;;;4839827;29;20045;-84
2021/12/05 05:10:31;;;;;;;10.75;2.05;;;1.20;99.90;;;;;;4859178;29;20069;-83
2021/12/05 05:13:18;;;;;;;8.60;1.85;;;1.20;99.90;;;;;;4857328;29;20046;-84
2021/12/05 05:16:07;;;;;;;14.52;2.75;;;1.30;99.90;;;;;;4861564;29;20469;-84
2021/12/05 05:18:58;;;;;;;11.45;2.78;;;1.20;99.90;;;;;;4853914;29;20507;-88
2021/12/05 05:21:53;;;;;;;9.32;2.20;;;1.20;99.90;;;;;;4855519;29;20375;-83
2021/12/05 05:39:11;;;;;;;7.65;2.67;;;1.10;99.90;;;;;;4852838;29;20156;-85
2021/12/05 05:52:18;;;;;;;8.95;3.30;;;1.00;99.90;;;;;;4856014;29;20128;-84
2021/12/05 05:55:06;;;;;;;8.63;3.13;;;1.00;99.90;;;;;;4856790;29;20046;-87
2021/12/05 06:01:22;;;;;;;9.20;3.13;;;0.90;99.90;;;;;;4854436;29;20050;-87
2021/12/05 06:04:02;;;;;;;10.80;3.47;;;0.90;99.90;;;;;;4860606;29;20053;-87
2021/12/05 06:06:50;;;;;;;11.93;3.17;;;0.80;99.90;;;;;;4843998;29;20053;-84
2021/12/05 06:09:37;;;;;;;11.20;3.00;;;0.90;99.90;;;;;;4847381;29;20054;-84
2021/12/05 06:12:28;;;;;;;9.70;2.90;;;0.80;99.90;;;;;;4858950;29;20057;-85
2021/12/05 06:15:20;;;;;;;9.13;2.83;;;0.90;99.90;;;;;;4845240;29;20088;-83
2021/12/05 06:18:08;;;;;;;7.05;2.70;;;0.90;99.90;;;;;;4852053;29;20129;-85
2021/12/05 06:20:57;;;;;;;8.02;3.05;;;0.90;99.90;;;;;;4857664;29;20049;-86
2021/12/05 06:23:45;;;;;;;10.60;3.33;;;1.00;99.90;;;;;;4861096;29;20060;-86
2021/12/05 06:26:35;;;;;;;9.73;2.90;;;1.00;99.90;;;;;;4847014;29;20052;-86
2021/12/05 06:29:23;;;;;;;10.13;3.00;;;1.00;99.90;;;;;;4859392;29;20065;-85
2021/12/05 06:38:40;;;;;;;8.90;2.72;;;1.00;99.90;;;;;;4853062;29;20049;-86
2021/12/05 06:41:50;;;;;;;12.48;3.25;;;1.00;99.90;;;;;;4849029;29;20053;-86
2021/12/05 06:47:47;;;;;;;12.57;3.03;;;0.90;99.90;;;;;;4854723;29;20102;-85
2021/12/05 06:50:36;;;;;;;9.60;3.90;;;0.90;99.90;;;;;;4857334;29;20219;-84
2021/12/05 06:53:24;;;;;;;13.90;3.78;;;0.90;99.90;;;;;;4844579;29;20114;-85
2021/12/05 06:56:14;;;;;;;7.57;3.30;;;0.90;99.90;;;;;;4849669;29;20472;-88
2021/12/05 09:50:50;;;;;;;;;;;;;;;;;;;;;
2021/12/05 09:51:15;;;;;;;3.92;1.50;;;6.00;99.90;;;;;;4862520;29;20455;-88
2021/12/05 10:39:08;;;;;;;3.88;1.38;;;10.00;94.40;;;;;;4874105;29;20125;-87
2021/12/05 10:42:41;;;;;;;4.80;1.50;;;10.20;93.70;;;;;;4877717;29;20424;-87
2021/12/05 11:05:52;;;;;;;3.67;1.50;;;6.80;99.90;;;;;;4751973;30;20427;-86
2021/12/05 11:08:44;;;;;;;7.65;2.20;;;8.80;99.90;;;;;;4778857;29;20146;-89
2021/12/05 11:11:33;;;;;;;;;;;9.20;99.90;;;;;;4812917;29;20119;-85
2021/12/05 11:14:27;;;;;;;2.90;1.80;;;9.80;96.90;;;;;;4852601;29;19935;-86
2021/12/05 11:17:26;;;;;;;4.10;1.55;;;10.00;96.70;;;;;;4844971;29;20064;-84
2021/12/05 11:20:21;;;;;;;4.45;1.50;;;10.60;92.80;;;;;;4865001;29;20053;-87
2021/12/05 11:23:18;;;;;;;5.05;1.55;;;10.90;91.50;;;;;;4878134;29;20038;-87
2021/12/05 11:26:19;;;;;;;4.03;1.65;;;11.40;91.40;;;;;;4867195;29;20479;-87
2021/12/05 11:29:09;;;;;;;4.95;1.65;;;10.70;90.10;;;;;;4877333;29;20129;-87
2021/12/05 11:32:11;;;;;;;3.58;1.13;;;9.20;92.20;;;;;;4870311;29;20057;-86
2021/12/05 11:35:09;;;;;;;4.70;1.80;;;7.80;96.70;;;;;;4862332;29;20049;-86
2021/12/05 11:38:38;;;;;;;5.18;2.00;;;6.90;99.90;;;;;;4878404;29;20052;-83
2021/12/05 11:41:26;;;;;;;2.42;1.88;;;5.90;99.90;;;;;;4862325;29;20056;-85
2021/12/05 11:44:20;;;;;;;6.75;2.30;;;5.60;99.90;;;;;;4845227;29;20063;-84
2021/12/05 11:47:16;;;;;;;5.32;2.63;;;6.20;99.90;;;;;;4863741;29;20429;-83
2021/12/05 11:50:09;;;;;;;3.55;2.00;;;7.40;99.90;;;;;;4867933;29;20049;-85
2021/12/05 11:52:57;;;;;;;3.45;1.42;;;8.10;99.90;;;;;;4876792;29;20420;-83
2021/12/05 11:55:44;;;;;;;4.03;2.10;;;6.90;99.90;;;;;;4860242;29;20131;-85
2021/12/05 11:58:32;;;;;;;4.55;1.40;;;6.60;99.90;;;;;;4878551;29;20060;-82
2021/12/05 12:01:19;;;;;;;4.22;1.60;;;7.50;99.90;;;;;;4862004;29;20384;-85
2021/12/05 12:04:11;;;;;;;3.22;1.70;;;7.80;99.90;;;;;;4838522;29;20116;-86
2021/12/05 12:07:25;;;;;;;2.20;1.40;;;7.70;99.90;;;;;;4869806;29;20475;-85
2021/12/05 12:10:46;;;;;;;2.92;1.25;;;7.70;99.90;;;;;;4855618;29;20057;-85
2021/12/05 12:13:41;;;;;;;1.52;1.35;;;7.10;99.90;;;;;;4872928;29;20488;-83
2021/12/05 12:16:34;;;;;;;2.50;1.80;;;7.30;99.90;;;;;;4863703;29;20132;-83
2021/12/05 12:19:22;;;;;;;;;;;7.40;99.90;;;;;;4867271;29;20450;-83
2021/12/05 12:22:10;;;;;;;3.50;1.33;;;8.00;99.90;;;;;;4879729;29;19924;-85
2021/12/05 12:25:01;;;;;;;0.88;0.88;;;8.30;99.90;;;;;;4867808;29;20061;-84
2021/12/05 12:27:49;;;;;;;3.25;1.92;;;8.20;99.90;;;;;;4867374;29;20475;-84
2021/12/05 12:30:40;;;;;;;3.30;1.58;;;7.10;99.90;;;;;;4867591;29;20053;-83
2021/12/05 12:33:43;;;;;;;4.13;1.67;;;7.70;99.90;;;;;;4882408;29;20044;-84
2021/12/05 12:36:50;;;;;;;4.88;2.08;;;7.50;99.90;;;;;;4896174;29;20151;-84
2021/12/05 12:39:44;;;;;;;4.32;2.13;;;7.00;99.90;;;;;;4860810;29;20049;-85
2021/12/05 12:42:38;;;;;;;2.28;1.33;;;8.10;99.90;;;;;;4875563;29;20542;-86
2021/12/05 12:45:25;;;;;;;1.92;1.13;;;10.00;96.70;;;;;;4875203;29;20045;-85
2021/12/05 12:48:16;;;;;;;1.67;1.00;;;10.50;93.50;;;;;;4880419;29;20071;-84
2021/12/05 12:51:04;;;;;;;1.38;0.80;;;11.20;90.40;;;;;;4880024;29;20125;-85
2021/12/05 12:53:58;;;;;;;2.92;1.10;;;10.40;88.20;;;;;;4865724;29;20087;-82
2021/12/05 12:57:12;;;;;;;3.35;1.20;;;9.10;91.70;;;;;;4864114;29;20064;-84
2021/12/05 13:00:08;;;;;;;6.72;1.90;;;7.80;97.10;;;;;;4851867;29;20113;-84
2021/12/05 13:02:59;;;;;;;4.93;2.03;;;7.10;99.90;;;;;;4867426;29;20049;-84
2021/12/05 13:12:10;;;;;;;2.00;1.40;;;5.30;99.90;;;;;;4870683;29;20091;-83
2021/12/05 13:15:20;;;;;;;5.43;2.33;;;5.00;99.90;;;;;;4865447;29;20490;-84
2021/12/05 13:18:13;;;;;;;3.63;1.35;;;4.90;99.90;;;;;;4862501;29;20061;-83
2021/12/05 13:21:10;;;;;;;;;;;4.80;99.90;;;;;;4879486;29;20056;-83
2021/12/05 13:23:58;;;;;;;2.72;1.65;;;4.70;99.90;;;;;;4853615;29;20258;-83
2021/12/05 13:26:46;;;;;;;6.20;1.88;;;4.60;99.90;;;;;;4878911;29;20059;-83
2021/12/05 13:29:46;;;;;;;7.35;2.83;;;4.50;99.90;;;;;;4852159;29;20049;-83
2021/12/05 13:32:37;;;;;;;7.30;2.92;;;4.50;99.90;;;;;;4864775;29;20487;-82
2021/12/05 13:35:25;;;;;;;7.25;3.67;;;4.50;99.90;;;;;;4879245;29;20048;-83
2021/12/05 13:38:38;;;;;;;3.50;1.67;;;4.50;99.90;;;;;;4865458;29;20526;-83
2021/12/05 13:41:27;;;;;;;7.75;3.05;;;4.60;99.90;;;;;;4877710;29;20053;-83
2021/12/05 13:44:14;;;;;;;3.20;1.35;;;4.80;99.90;;;;;;4865926;29;20049;-84
2021/12/05 13:47:16;;;;;;;4.15;2.03;;;5.20;99.90;;;;;;4862610;29;20101;-83
2021/12/05 13:50:19;;;;;;;3.58;2.38;;;5.20;99.90;;;;;;4869985;29;20394;-84
2021/12/05 13:53:06;;;;;;;;;;;5.10;99.90;;;;;;4855497;29;20403;-83
2021/12/05 13:55:53;;;;;;;3.75;1.88;;;5.00;99.90;;;;;;4857137;29;19935;-82
2021/12/05 13:58:45;;;;;;;6.07;1.67;;;5.20;99.90;;;;;;4863783;29;20198;-83
2021/12/05 14:01:44;;;;;;;2.80;1.70;;;6.30;99.90;;;;;;4863117;29;20057;-83
2021/12/05 14:04:34;;;;;;;3.80;1.52;;;7.40;99.90;;;;;;4859300;29;20210;-84
2021/12/05 14:07:27;;;;;;;2.92;1.70;;;8.50;99.90;;;;;;4858637;29;20175;-82
2021/12/05 14:10:16;;;;;;;3.33;1.27;;;9.00;97.50;;;;;;4866874;29;20098;-84
2021/12/05 14:13:05;;;;;;;3.55;1.50;;;8.10;97.90;;;;;;4834773;29;20069;-83
2021/12/05 14:15:58;;;;;;;3.17;1.60;;;6.90;99.90;;;;;;4867216;29;20060;-84
2021/12/05 14:18:53;;;;;;;6.18;2.00;;;5.90;99.90;;;;;;4853701;29;20132;-84
2021/12/05 14:21:43;;;;;;;6.05;1.52;;;5.20;99.90;;;;;;4870738;29;20041;-84
2021/12/05 14:24:34;;;;;;;4.43;1.50;;;4.80;99.90;;;;;;4864701;29;20471;-84
2021/12/05 14:27:26;;;;;;;4.65;2.10;;;4.40;99.90;;;;;;4863952;29;20060;-84
2021/12/05 14:30:19;;;;;;;3.42;2.22;;;4.20;99.90;;;;;;4879009;29;20056;-83
2021/12/05 14:33:06;;;;;;;7.10;2.85;;;4.10;99.90;;;;;;4866771;29;20045;-83
2021/12/05 14:35:53;;;;;;;5.60;2.60;;;3.90;99.90;;;;;;4861331;29;20080;-83
2021/12/05 14:38:41;;;;;;;4.30;2.50;;;3.80;99.90;;;;;;4869116;29;20045;-83
2021/12/05 14:41:35;;;;;;;6.28;2.38;;;3.80;99.90;;;;;;4878337;29;20041;-83
2021/12/05 14:44:23;;;;;;;6.22;2.30;;;4.00;99.90;;;;;;4865468;29;20053;-83
2021/12/05 14:47:14;;;;;;;6.22;2.33;;;4.10;99.90;;;;;;4866400;29;20049;-83
2021/12/05 14:50:12;;;;;;;7.82;2.10;;;4.40;99.90;;;;;;4866970;29;20056;-82
2021/12/05 14:53:02;;;;;;;7.90;2.20;;;4.90;99.90;;;;;;4850038;29;20477;-84
2021/12/05 14:55:56;;;;;;;5.60;2.13;;;5.50;99.90;;;;;;4862457;29;20056;-82
2021/12/05 14:58:45;;;;;;;5.13;2.08;;;5.80;99.90;;;;;;4863734;29;20084;-82
2021/12/05 15:01:33;;;;;;;2.63;2.08;;;5.70;99.90;;;;;;4844735;29;20414;-82
2021/12/05 15:04:34;;;;;;;8.73;3.00;;;5.30;99.90;;;;;;4876689;29;20049;-82
2021/12/05 15:07:23;;;;;;;12.57;4.72;;;5.10;99.90;;;;;;4846611;29;20060;-82
2021/12/05 15:10:19;;;;;;;5.07;3.00;;;5.00;99.90;;;;;;4871574;29;20880;-85
2021/12/05 15:13:08;;;;;;;6.70;2.80;;;5.00;99.90;;;;;;4854601;29;20045;-84
2021/12/05 15:16:04;;;;;;;7.38;2.40;;;4.90;99.90;;;;;;4861118;29;20041;-82
2021/12/05 15:18:52;;;;;;;8.05;3.42;;;4.70;99.90;;;;;;4859256;29;20068;-82
2021/12/05 15:21:42;;;;;;;5.22;3.00;;;4.30;99.90;;;;;;4847143;29;20412;-84
2021/12/05 15:24:30;;;;;;;6.18;3.10;;;4.10;99.90;;;;;;4833638;29;20547;-83
2021/12/05 15:27:20;;;;;;;7.53;3.03;;;3.80;99.90;;;;;;4843852;29;20105;-83
2021/12/05 15:30:20;;;;;;;8.98;2.80;;;3.60;99.90;;;;;;4840054;29;20163;-83
2021/12/05 15:33:15;;;;;;;6.00;2.67;;;3.50;99.90;;;;;;4839824;29;20392;-84
2021/12/05 15:36:04;;;;;;;6.15;2.72;;;3.40;99.90;;;;;;4843086;29;20049;-83
2021/12/05 15:38:52;;;;;;;5.30;3.63;;;3.30;99.90;;;;;;4844650;29;20462;-84
2021/12/05 15:41:39;;;;;;;10.68;3.92;;;3.20;99.90;;;;;;4857112;29;20388;-81
2021/12/05 15:44:39;;;;;;;8.10;3.75;;;3.20;99.90;;;;;;4846001;29;20080;-84
2021/12/05 15:47:32;;;;;;;8.75;3.15;;;3.10;99.90;;;;;;4845341;29;20448;-85
2021/12/05 15:50:24;;;;;;;9.55;4.40;;;3.10;99.90;;;;;;4844062;29;20054;-83
2021/12/05 15:53:15;;;;;;;10.82;3.58;;;3.00;99.90;;;;;;4856809;29;20102;-82
2021/12/05 15:56:09;;;;;;;8.10;3.58;;;2.90;99.90;;;;;;4843767;29;20069;-84
2021/12/05 15:59:17;;;;;;;10.27;6.10;;;2.90;99.90;;;;;;4841621;29;20202;-82
2021/12/05 16:02:09;;;;;;;12.63;6.20;;;2.90;99.90;;;;;;4854856;29;20149;-85
2021/12/05 16:05:11;;;;;;;10.70;4.70;;;2.80;99.90;;;;;;4845393;29;20110;-84
2021/12/05 16:08:14;;;;;;;6.30;3.80;;;2.60;99.90;;;;;;4836478;29;20469;-84
2021/12/05 16:11:10;;;;;;;10.52;5.38;;;2.50;99.90;;;;;;4832664;29;20053;-83
2021/12/05 16:13:58;;;;;;;19.02;8.70;;;2.40;99.90;;;;;;4846797;29;20559;-81
2021/12/05 16:16:49;;;;;;;78.05;45.05;;;2.20;99.90;;;;;;4852488;29;20427;-84
2021/12/05 16:19:38;;;;;;;27.27;14.70;;;2.10;99.90;;;;;;4864851;29;20041;-82
2021/12/05 16:22:57;;;;;;;18.35;10.38;;;2.00;99.90;;;;;;4867618;29;20048;-83
2021/12/05 16:25:55;;;;;;;10.32;5.90;;;1.90;99.90;;;;;;4881818;29;20044;-84
2021/12/05 16:28:48;;;;;;;8.63;5.40;;;1.80;99.90;;;;;;4862405;29;20059;-83
2021/12/05 16:31:50;;;;;;;11.48;5.03;;;1.70;99.90;;;;;;4860513;29;20079;-83
2021/12/05 16:34:46;;;;;;;12.02;5.65;;;1.50;99.90;;;;;;4890034;29;20045;-83
2021/12/05 16:37:39;;;;;;;11.75;6.30;;;1.40;99.90;;;;;;4895330;29;20063;-83
2021/12/05 16:40:56;;;;;;;11.75;6.40;;;1.20;99.90;;;;;;4873340;29;20064;-83
2021/12/05 16:43:50;;;;;;;13.73;6.85;;;1.10;99.90;;;;;;4863347;29;20052;-84
2021/12/05 16:46:41;;;;;;;15.05;8.20;;;1.10;99.90;;;;;;4867775;29;20482;-82
2021/12/05 16:49:34;;;;;;;17.10;7.90;;;1.10;99.90;;;;;;4862289;29;20477;-83
2021/12/05 16:52:32;;;;;;;15.38;9.73;;;1.00;99.90;;;;;;4870469;29;20053;-84
2021/12/05 16:55:29;;;;;;;27.80;12.90;;;1.00;99.90;;;;;;4868185;29;20088;-84
2021/12/05 16:58:17;;;;;;;22.02;11.30;;;1.00;99.90;;;;;;4861885;29;20048;-84
2021/12/05 17:01:07;;;;;;;13.15;6.30;;;1.10;99.90;;;;;;4850448;29;20052;-83
2021/12/05 17:03:55;;;;;;;15.40;6.50;;;1.10;99.90;;;;;;4877527;29;20077;-83
2021/12/05 17:06:46;;;;;;;10.05;7.47;;;1.10;99.90;;;;;;4865568;29;20102;-82
2021/12/05 17:09:38;;;;;;;10.75;7.28;;;1.10;99.90;;;;;;4852555;29;20140;-83
2021/12/05 17:12:33;;;;;;;14.48;6.85;;;1.10;99.90;;;;;;4874302;29;20105;-83
2021/12/05 17:15:29;;;;;;;14.23;7.78;;;1.20;99.90;;;;;;4856124;29;20045;-83
2021/12/05 17:18:23;;;;;;;12.52;8.15;;;1.20;99.90;;;;;;4864918;29;20072;-83
2021/12/05 17:21:22;;;;;;;13.40;8.93;;;1.10;99.90;;;;;;4864869;29;20071;-83
2021/12/05 17:24:18;;;;;;;19.30;9.90;;;1.10;99.90;;;;;;4871099;29;20607;-84
2021/12/05 17:27:07;;;;;;;18.10;8.52;;;1.20;99.90;;;;;;4871515;29;20056;-84
2021/12/05 17:29:55;;;;;;;23.88;10.05;;;1.20;99.90;;;;;;4875955;29;20395;-82
2021/12/05 17:32:42;;;;;;;17.15;10.68;;;1.30;99.90;;;;;;4861418;29;20161;-83
2021/12/05 17:35:30;;;;;;;16.13;9.27;;;1.40;99.90;;;;;;4866881;29;20064;-84
2021/12/05 17:38:35;;;;;;;41.17;14.95;;;1.40;99.90;;;;;;4860023;29;20093;-84
2021/12/05 17:41:26;;;;;;;26.65;10.90;;;1.40;99.90;;;;;;4859107;29;20468;-82
2021/12/05 17:44:16;;;;;;;35.17;14.30;;;1.30;99.90;;;;;;4866415;29;20103;-82
2021/12/05 17:47:13;;;;;;;18.15;9.48;;;1.30;99.90;;;;;;4856075;29;20064;-81
2021/12/05 17:50:04;;;;;;;17.73;10.15;;;1.30;99.90;;;;;;4864704;29;20071;-82
2021/12/05 17:52:51;;;;;;;16.08;7.82;;;1.20;99.90;;;;;;4865446;29;20481;-82
2021/12/05 17:55:45;;;;;;;12.98;6.82;;;1.10;99.90;;;;;;4854332;29;20056;-84
2021/12/05 18:04:41;;;;;;;23.25;11.02;;;0.90;99.90;;;;;;4868297;29;20097;-82
2021/12/05 18:07:33;;;;;;;21.52;12.80;;;0.80;99.90;;;;;;4864451;29;20181;-82
2021/12/05 18:10:25;;;;;;;29.23;15.95;;;0.70;99.90;;;;;;4856245;29;20056;-85
2021/12/05 18:13:13;;;;;;;36.78;21.98;;;0.70;99.90;;;;;;4873711;29;20716;-83
2021/12/05 18:16:14;;;;;;;18.73;9.93;;;0.60;99.90;;;;;;4872624;29;20102;-83
2021/12/05 18:19:06;;;;;;;25.05;14.60;;;0.60;99.90;;;;;;4852337;29;20174;-82
2021/12/05 18:21:53;;;;;;;96.05;54.10;;;0.50;99.90;;;;;;4863948;29;20360;-82
2021/12/05 18:24:44;;;;;;;47.10;29.13;;;0.60;99.90;;;;;;4878274;29;20045;-83
2021/12/05 18:27:32;;;;;;;29.45;17.85;;;0.60;99.90;;;;;;4863187;29;20053;-83
2021/12/05 18:30:22;;;;;;;23.38;16.15;;;0.60;99.90;;;;;;4849564;29;20743;-83
2021/12/05 18:33:11;;;;;;;25.50;15.25;;;0.70;99.90;;;;;;4865182;29;20060;-83
2021/12/05 18:35:58;;;;;;;29.88;13.82;;;0.70;99.90;;;;;;4858650;29;20045;-84
2021/12/05 18:38:47;;;;;;;22.75;11.95;;;0.70;99.90;;;;;;4850419;29;20203;-82
2021/12/05 18:41:36;;;;;;;27.90;12.10;;;0.60;99.90;;;;;;4864341;29;20111;-83
2021/12/05 18:44:28;;;;;;;24.65;13.32;;;0.70;99.90;;;;;;4845728;29;20574;-83
2021/12/05 18:47:16;;;;;;;18.98;9.63;;;0.70;99.90;;;;;;4867190;29;20056;-83
2021/12/05 18:50:05;;;;;;;40.97;22.70;;;0.70;99.90;;;;;;4877479;29;20548;-83
2021/12/05 18:52:53;;;;;;;38.05;20.70;;;0.80;99.90;;;;;;4878048;29;20053;-83
2021/12/05 18:55:41;;;;;;;35.70;20.80;;;0.80;99.90;;;;;;4878013;29;20095;-82
2021/12/05 18:58:33;;;;;;;47.47;26.73;;;0.80;99.90;;;;;;4862877;29;20072;-82
2021/12/05 19:04:38;;;;;;;51.63;25.35;;;0.90;99.90;;;;;;4858290;29;20057;-83
2021/12/05 19:07:40;;;;;;;51.38;27.25;;;0.90;99.90;;;;;;4863049;29;20053;-84
2021/12/05 19:13:38;;;;;;;53.08;26.55;;;0.90;99.90;;;;;;4889278;29;20156;-82
2021/12/05 19:16:26;;;;;;;44.95;24.92;;;0.90;99.90;;;;;;4887944;29;20061;-83
2021/12/05 19:19:18;;;;;;;44.28;22.35;;;1.00;99.90;;;;;;4870334;29;20067;-83
2021/12/05 19:22:09;;;;;;;43.33;22.33;;;1.10;99.90;;;;;;4856256;29;20068;-84
2021/12/05 19:25:01;;;;;;;43.40;24.02;;;1.10;99.90;;;;;;4885666;29;20072;-82
2021/12/05 19:27:51;;;;;;;41.72;23.60;;;1.20;99.90;;;;;;4874843;29;20064;-82
2021/12/05 19:30:51;;;;;;;36.42;20.60;;;1.20;99.90;;;;;;4863777;29;20056;-82
2021/12/05 19:33:38;;;;;;;42.17;23.13;;;1.30;99.90;;;;;;4867871;29;20086;-83
2021/12/05 19:36:28;;;;;;;39.15;24.50;;;1.30;99.90;;;;;;4867359;29;20060;-82
2021/12/05 19:39:18;;;;;;;36.80;23.80;;;1.30;99.90;;;;;;4853576;29;20375;-85
2021/12/05 19:42:07;;;;;;;41.58;23.27;;;1.30;99.90;;;;;;4847867;29;20166;-84
2021/12/05 19:44:56;;;;;;;31.67;19.20;;;1.30;99.90;;;;;;4864428;29;20734;-82
2021/12/05 19:47:48;;;;;;;26.83;16.25;;;1.30;99.90;;;;;;4876483;29;20131;-83
2021/12/05 19:50:43;;;;;;;32.42;19.48;;;1.30;99.90;;;;;;4863005;29;20076;-83
2021/12/05 19:53:30;;;;;;;33.75;19.52;;;1.30;99.90;;;;;;4862798;29;20061;-84
2021/12/05 19:56:20;;;;;;;35.50;21.02;;;1.20;99.90;;;;;;4863354;29;20443;-84
2021/12/05 19:59:11;;;;;;;42.95;24.38;;;1.20;99.90;;;;;;4861751;29;20049;-83
2021/12/05 20:02:00;;;;;;;39.63;22.30;;;1.10;99.90;;;;;;4862507;29;20045;-83
2021/12/05 20:04:53;;;;;;;38.05;18.45;;;1.10;99.90;;;;;;4836532;29;20105;-84
2021/12/05 20:07:42;;;;;;;27.45;16.65;;;1.00;99.90;;;;;;4870888;29;20052;-83
2021/12/05 20:10:33;;;;;;;26.13;14.25;;;1.00;99.90;;;;;;4862748;29;20049;-82
2021/12/05 20:13:20;;;;;;;25.17;13.48;;;1.00;99.90;;;;;;4862060;29;20057;-82
2021/12/05 20:16:09;;;;;;;23.15;14.65;;;1.00;99.90;;;;;;4845223;29;20053;-82
2021/12/05 20:18:58;;;;;;;28.15;14.77;;;0.90;99.90;;;;;;4859447;29;20056;-83
2021/12/05 20:21:48;;;;;;;27.88;15.65;;;0.90;99.90;;;;;;4878053;29;20068;-83
2021/12/05 20:24:38;;;;;;;28.88;16.73;;;1.00;99.90;;;;;;4873676;29;20044;-84
2021/12/05 20:27:27;;;;;;;29.75;18.23;;;1.00;99.90;;;;;;4862118;29;20094;-83
2021/12/05 20:30:16;;;;;;;33.90;21.13;;;0.90;99.90;;;;;;4861785;29;20064;-84
2021/12/05 20:33:11;;;;;;;33.20;19.10;;;1.00;99.90;;;;;;4853275;29;20060;-81
2021/12/05 20:36:00;;;;;;;67.70;35.20;;;1.00;99.90;;;;;;4844561;29;20049;-82
2021/12/05 20:38:49;;;;;;;53.15;27.42;;;1.00;99.90;;;;;;4871847;29;20053;-82
2021/12/05 20:41:39;;;;;;;43.95;22.40;;;1.00;99.90;;;;;;4880389;29;20057;-83
2021/12/05 20:44:29;;;;;;;35.22;19.65;;;1.00;99.90;;;;;;4869672;29;20060;-83
2021/12/05 20:47:18;;;;;;;36.90;21.02;;;1.00;99.90;;;;;;4864308;29;20061;-83
2021/12/05 20:50:07;;;;;;;37.25;20.35;;;1.00;99.90;;;;;;4860755;29;20101;-82
2021/12/05 20:52:57;;;;;;;31.00;18.70;;;1.00;99.90;;;;;;4871254;29;20059;-84
2021/12/05 20:55:46;;;;;;;27.67;16.83;;;1.00;99.90;;;;;;4862065;29;20117;-85
2021/12/05 20:58:34;;;;;;;28.92;16.00;;;1.00;99.90;;;;;;4857582;29;20044;-85
2021/12/05 21:01:21;;;;;;;38.30;22.63;;;1.00;99.90;;;;;;4866229;29;20365;-85
2021/12/05 21:04:12;;;;;;;39.10;21.10;;;1.00;99.90;;;;;;4863634;29;20069;-86
2021/12/05 21:07:00;;;;;;;36.78;20.42;;;1.00;99.90;;;;;;4864237;29;20515;-85
2021/12/05 21:09:48;;;;;;;30.50;17.92;;;1.00;99.90;;;;;;4879726;29;20040;-84
2021/12/05 21:12:35;;;;;;;26.63;16.85;;;1.00;99.90;;;;;;4842507;29;20056;-84
2021/12/05 21:15:24;;;;;;;32.55;17.50;;;1.00;99.90;;;;;;4879019;29;20045;-82
2021/12/05 21:18:13;;;;;;;36.85;19.55;;;1.00;99.90;;;;;;4865502;29;20427;-82
2021/12/05 21:21:07;;;;;;;31.38;18.23;;;1.00;99.90;;;;;;4864684;29;20053;-82
2021/12/05 21:23:57;;;;;;;32.00;18.67;;;1.00;99.90;;;;;;4876350;29;20059;-83
2021/12/05 21:26:45;;;;;;;31.40;18.65;;;1.00;99.90;;;;;;4865012;29;20113;-83
2021/12/05 21:29:33;;;;;;;32.63;19.13;;;1.10;99.90;;;;;;4865870;29;20162;-84
2021/12/05 21:32:43;;;;;;;35.45;20.60;;;1.10;99.90;;;;;;4857326;29;20164;-83
2021/12/05 21:35:30;;;;;;;28.88;18.20;;;1.10;99.90;;;;;;4854768;29;20442;-83
2021/12/05 21:38:23;;;;;;;32.15;17.48;;;1.00;99.90;;;;;;4877798;29;20049;-82
2021/12/05 21:41:14;;;;;;;28.58;17.75;;;1.00;99.90;;;;;;4864720;29;20127;-83
2021/12/05 21:44:04;;;;;;;23.92;16.45;;;1.00;99.90;;;;;;4863470;29;20256;-83
2021/12/05 21:46:51;;;;;;;24.00;14.57;;;1.00;99.90;;;;;;4848380;29;20053;-84
2021/12/05 21:49:40;;;;;;;25.00;14.77;;;1.00;99.90;;;;;;4880953;29;20048;-84
2021/12/05 21:52:29;;;;;;;23.13;13.98;;;0.90;99.90;;;;;;4856437;29;20056;-84
2021/12/05 21:55:24;;;;;;;27.85;16.38;;;0.90;99.90;;;;;;4866621;29;20514;-85